sensor_id;sensor_type;location;lat;lon;timestamp;P1;durP1;ratioP1;P2;durP2;ratioP2
2762;SDS011;1389;51.490;7.338;2023-08-30T00:00:58;845.38;;;308.10;;
2762;SDS011;1389;51.490;7.338;2023-08-30T00:03:24;845.63;;;308.17;;
2762;SDS011;1389;51.490;7.338;2023-08-30T00:05:50;849.35;;;312.23;;
2762;SDS011;1389;51.490;7.338;2023-08-30T00:08:16;848.38;;;310.85;;
2762;SDS011;1389;51.490;7.338;2023-08-30T00:10:44;848.97;;;311.35;;
2762;SDS011;1389;51.490;7.338;2023-08-30T00:13:10;848.20;;;310.08;;
2762;SDS011;1389;51.490;7.338;2023-08-30T00:15:37;981.53;;;392.70;;
2762;SDS011;1389;51.490;7.338;2023-08-30T00:18:03;854.72;;;316.73;;
2762;SDS011;1389;51.490;7.338;2023-08-30T00:20:30;855.58;;;317.67;;
2762;SDS011;1389;51.490;7.338;2023-08-30T00:22:56;855.55;;;317.48;;
2762;SDS011;1389;51.490;7.338;2023-08-30T00:25:22;855.42;;;316.98;;
2762;SDS011;1389;51.490;7.338;2023-08-30T00:27:48;855.83;;;317.30;;
2762;SDS011;1389;51.490;7.338;2023-08-30T00:30:14;984.10;;;394.50;;
2762;SDS011;1389;51.490;7.338;2023-08-30T00:32:40;857.70;;;319.13;;
2762;SDS011;1389;51.490;7.338;2023-08-30T00:35:06;858.42;;;319.98;;
2762;SDS011;1389;51.490;7.338;2023-08-30T00:37:33;857.65;;;318.88;;
2762;SDS011;1389;51.490;7.338;2023-08-30T00:39:59;984.03;;;393.70;;
2762;SDS011;1389;51.490;7.338;2023-08-30T00:42:25;985.07;;;395.23;;
2762;SDS011;1389;51.490;7.338;2023-08-30T00:44:52;984.80;;;394.83;;
2762;SDS011;1389;51.490;7.338;2023-08-30T00:47:18;857.28;;;318.33;;
2762;SDS011;1389;51.490;7.338;2023-08-30T00:49:48;856.72;;;317.77;;
2762;SDS011;1389;51.490;7.338;2023-08-30T00:52:15;856.78;;;318.23;;
2762;SDS011;1389;51.490;7.338;2023-08-30T00:54:41;855.80;;;316.95;;
2762;SDS011;1389;51.490;7.338;2023-08-30T00:57:07;857.03;;;318.48;;
2762;SDS011;1389;51.490;7.338;2023-08-30T00:59:34;857.05;;;318.23;;
2762;SDS011;1389;51.490;7.338;2023-08-30T01:02:00;858.30;;;319.80;;
2762;SDS011;1389;51.490;7.338;2023-08-30T01:04:27;858.70;;;320.10;;
2762;SDS011;1389;51.490;7.338;2023-08-30T01:06:53;858.03;;;319.10;;
2762;SDS011;1389;51.490;7.338;2023-08-30T01:09:20;858.10;;;319.35;;
2762;SDS011;1389;51.490;7.338;2023-08-30T01:15:18;858.85;;;320.02;;
2762;SDS011;1389;51.490;7.338;2023-08-30T01:17:45;859.45;;;320.70;;
2762;SDS011;1389;51.490;7.338;2023-08-30T01:20:14;858.33;;;319.02;;
2762;SDS011;1389;51.490;7.338;2023-08-30T01:22:55;859.05;;;319.95;;
2762;SDS011;1389;51.490;7.338;2023-08-30T01:25:32;858.60;;;319.35;;
2762;SDS011;1389;51.490;7.338;2023-08-30T01:28:26;859.45;;;320.40;;
2762;SDS011;1389;51.490;7.338;2023-08-30T01:30:54;858.33;;;319.15;;
2762;SDS011;1389;51.490;7.338;2023-08-30T01:33:22;860.25;;;321.45;;
2762;SDS011;1389;51.490;7.338;2023-08-30T01:35:49;858.40;;;319.05;;
2762;SDS011;1389;51.490;7.338;2023-08-30T01:38:17;858.80;;;319.50;;
2762;SDS011;1389;51.490;7.338;2023-08-30T01:40:43;859.22;;;320.33;;
2762;SDS011;1389;51.490;7.338;2023-08-30T01:43:11;859.15;;;320.25;;
2762;SDS011;1389;51.490;7.338;2023-08-30T01:45:39;860.20;;;321.58;;
2762;SDS011;1389;51.490;7.338;2023-08-30T01:48:07;858.78;;;320.02;;
2762;SDS011;1389;51.490;7.338;2023-08-30T01:50:36;859.15;;;320.42;;
2762;SDS011;1389;51.490;7.338;2023-08-30T01:53:04;859.03;;;320.15;;
2762;SDS011;1389;51.490;7.338;2023-08-30T01:55:31;858.25;;;319.45;;
2762;SDS011;1389;51.490;7.338;2023-08-30T01:57:58;859.47;;;321.05;;
2762;SDS011;1389;51.490;7.338;2023-08-30T02:00:24;858.70;;;319.73;;
2762;SDS011;1389;51.490;7.338;2023-08-30T02:02:50;984.70;;;394.50;;
2762;SDS011;1389;51.490;7.338;2023-08-30T02:05:16;859.13;;;320.52;;
2762;SDS011;1389;51.490;7.338;2023-08-30T02:10:12;478.60;;;93.40;;
2762;SDS011;1389;51.490;7.338;2023-08-30T02:12:46;859.30;;;320.63;;
2762;SDS011;1389;51.490;7.338;2023-08-30T02:15:14;859.45;;;320.50;;
2762;SDS011;1389;51.490;7.338;2023-08-30T02:17:42;860.65;;;321.60;;
2762;SDS011;1389;51.490;7.338;2023-08-30T02:20:09;860.83;;;321.77;;
2762;SDS011;1389;51.490;7.338;2023-08-30T02:22:35;860.88;;;321.60;;
2762;SDS011;1389;51.490;7.338;2023-08-30T02:25:02;860.63;;;320.92;;
2762;SDS011;1389;51.490;7.338;2023-08-30T02:27:32;987.73;;;396.97;;
2762;SDS011;1389;51.490;7.338;2023-08-30T02:29:59;861.47;;;321.60;;
2762;SDS011;1389;51.490;7.338;2023-08-30T02:32:25;862.22;;;322.48;;
2762;SDS011;1389;51.490;7.338;2023-08-30T02:34:51;862.00;;;322.20;;
2762;SDS011;1389;51.490;7.338;2023-08-30T02:37:18;989.43;;;398.70;;
2762;SDS011;1389;51.490;7.338;2023-08-30T02:39:44;862.53;;;322.52;;
2762;SDS011;1389;51.490;7.338;2023-08-30T02:42:11;482.80;;;95.97;;
2762;SDS011;1389;51.490;7.338;2023-08-30T02:44:37;862.55;;;322.58;;
2762;SDS011;1389;51.490;7.338;2023-08-30T02:47:03;862.53;;;322.50;;
2762;SDS011;1389;51.490;7.338;2023-08-30T02:49:29;862.20;;;322.00;;
2762;SDS011;1389;51.490;7.338;2023-08-30T02:51:55;862.30;;;322.20;;
2762;SDS011;1389;51.490;7.338;2023-08-30T02:54:21;862.60;;;322.65;;
2762;SDS011;1389;51.490;7.338;2023-08-30T02:56:48;862.38;;;322.27;;
2762;SDS011;1389;51.490;7.338;2023-08-30T02:59:14;989.03;;;398.03;;
2762;SDS011;1389;51.490;7.338;2023-08-30T03:01:40;862.70;;;322.70;;
2762;SDS011;1389;51.490;7.338;2023-08-30T03:04:07;862.33;;;322.00;;
2762;SDS011;1389;51.490;7.338;2023-08-30T03:06:33;988.17;;;396.70;;
2762;SDS011;1389;51.490;7.338;2023-08-30T03:09:00;861.95;;;322.02;;
2762;SDS011;1389;51.490;7.338;2023-08-30T03:11:28;862.55;;;322.73;;
2762;SDS011;1389;51.490;7.338;2023-08-30T03:13:54;863.20;;;323.73;;
2762;SDS011;1389;51.490;7.338;2023-08-30T03:16:21;861.28;;;321.27;;
2762;SDS011;1389;51.490;7.338;2023-08-30T03:18:47;861.90;;;322.02;;
2762;SDS011;1389;51.490;7.338;2023-08-30T03:21:13;861.90;;;321.80;;
2762;SDS011;1389;51.490;7.338;2023-08-30T03:23:40;861.63;;;321.23;;
2762;SDS011;1389;51.490;7.338;2023-08-30T03:26:13;861.78;;;321.52;;
2762;SDS011;1389;51.490;7.338;2023-08-30T03:28:41;988.77;;;397.17;;
2762;SDS011;1389;51.490;7.338;2023-08-30T03:31:15;862.88;;;322.30;;
2762;SDS011;1389;51.490;7.338;2023-08-30T03:33:42;863.20;;;322.75;;
2762;SDS011;1389;51.490;7.338;2023-08-30T03:36:12;862.88;;;322.20;;
2762;SDS011;1389;51.490;7.338;2023-08-30T03:38:40;862.97;;;322.13;;
2762;SDS011;1389;51.490;7.338;2023-08-30T03:41:07;864.10;;;323.33;;
2762;SDS011;1389;51.490;7.338;2023-08-30T03:43:34;989.77;;;397.93;;
2762;SDS011;1389;51.490;7.338;2023-08-30T03:46:00;864.30;;;323.92;;
2762;SDS011;1389;51.490;7.338;2023-08-30T03:48:28;863.67;;;322.73;;
2762;SDS011;1389;51.490;7.338;2023-08-30T03:50:55;864.10;;;323.25;;
2762;SDS011;1389;51.490;7.338;2023-08-30T03:53:22;485.60;;;97.80;;
2762;SDS011;1389;51.490;7.338;2023-08-30T03:55:48;863.58;;;322.58;;
2762;SDS011;1389;51.490;7.338;2023-08-30T03:58:15;864.92;;;323.95;;
2762;SDS011;1389;51.490;7.338;2023-08-30T04:00:41;864.40;;;323.13;;
2762;SDS011;1389;51.490;7.338;2023-08-30T04:03:08;864.55;;;323.35;;
2762;SDS011;1389;51.490;7.338;2023-08-30T04:05:35;864.10;;;322.70;;
2762;SDS011;1389;51.490;7.338;2023-08-30T04:08:02;865.03;;;323.80;;
2762;SDS011;1389;51.490;7.338;2023-08-30T04:10:29;865.00;;;323.30;;
2762;SDS011;1389;51.490;7.338;2023-08-30T04:12:59;865.90;;;324.52;;
2762;SDS011;1389;51.490;7.338;2023-08-30T04:15:25;991.30;;;398.57;;
2762;SDS011;1389;51.490;7.338;2023-08-30T04:17:52;865.75;;;324.33;;
2762;SDS011;1389;51.490;7.338;2023-08-30T04:20:18;865.80;;;324.23;;
2762;SDS011;1389;51.490;7.338;2023-08-30T04:22:44;488.00;;;99.33;;
2762;SDS011;1389;51.490;7.338;2023-08-30T04:25:10;992.23;;;399.97;;
2762;SDS011;1389;51.490;7.338;2023-08-30T04:27:39;865.97;;;324.27;;
2762;SDS011;1389;51.490;7.338;2023-08-30T04:30:15;866.28;;;324.45;;
2762;SDS011;1389;51.490;7.338;2023-08-30T04:32:42;866.17;;;324.52;;
2762;SDS011;1389;51.490;7.338;2023-08-30T04:35:08;995.73;;;405.23;;
2762;SDS011;1389;51.490;7.338;2023-08-30T04:37:35;866.28;;;324.25;;
2762;SDS011;1389;51.490;7.338;2023-08-30T04:40:01;866.53;;;324.35;;
2762;SDS011;1389;51.490;7.338;2023-08-30T04:42:29;866.95;;;324.88;;
2762;SDS011;1389;51.490;7.338;2023-08-30T04:44:55;996.30;;;405.97;;
2762;SDS011;1389;51.490;7.338;2023-08-30T04:47:21;867.08;;;325.05;;
2762;SDS011;1389;51.490;7.338;2023-08-30T04:49:51;874.90;;;338.30;;
2762;SDS011;1389;51.490;7.338;2023-08-30T04:52:17;870.55;;;331.13;;
2762;SDS011;1389;51.490;7.338;2023-08-30T04:54:43;867.88;;;326.48;;
2762;SDS011;1389;51.490;7.338;2023-08-30T04:57:13;866.95;;;325.05;;
2762;SDS011;1389;51.490;7.338;2023-08-30T04:59:44;866.58;;;324.85;;
2762;SDS011;1389;51.490;7.338;2023-08-30T05:02:11;874.25;;;337.70;;
2762;SDS011;1389;51.490;7.338;2023-08-30T05:04:37;871.00;;;332.05;;
2762;SDS011;1389;51.490;7.338;2023-08-30T05:08:31;868.50;;;328.13;;
2762;SDS011;1389;51.490;7.338;2023-08-30T05:12:15;866.67;;;324.98;;
2762;SDS011;1389;51.490;7.338;2023-08-30T05:16:14;871.28;;;332.67;;
2762;SDS011;1389;51.490;7.338;2023-08-30T05:19:57;867.92;;;326.02;;
2762;SDS011;1389;51.490;7.338;2023-08-30T05:29:42;867.95;;;325.17;;
2762;SDS011;1389;51.490;7.338;2023-08-30T05:32:09;869.03;;;326.67;;
2762;SDS011;1389;51.490;7.338;2023-08-30T05:34:35;868.30;;;325.45;;
2762;SDS011;1389;51.490;7.338;2023-08-30T05:37:01;994.63;;;401.43;;
2762;SDS011;1389;51.490;7.338;2023-08-30T05:39:28;868.97;;;326.08;;
2762;SDS011;1389;51.490;7.338;2023-08-30T05:41:55;497.37;;;103.50;;
2762;SDS011;1389;51.490;7.338;2023-08-30T05:44:24;869.28;;;326.17;;
2762;SDS011;1389;51.490;7.338;2023-08-30T05:46:54;996.43;;;401.77;;
2762;SDS011;1389;51.490;7.338;2023-08-30T05:49:21;1999.90;;;999.90;;
2762;SDS011;1389;51.490;7.338;2023-08-30T05:51:51;1060.80;;;727.25;;
2762;SDS011;1389;51.490;7.338;2023-08-30T05:54:17;935.17;;;386.05;;
2762;SDS011;1389;51.490;7.338;2023-08-30T05:56:43;902.63;;;327.40;;
2762;SDS011;1389;51.490;7.338;2023-08-30T05:59:10;905.80;;;328.55;;
2762;SDS011;1389;51.490;7.338;2023-08-30T06:01:36;559.67;;;108.80;;
2762;SDS011;1389;51.490;7.338;2023-08-30T06:04:03;901.00;;;327.05;;
2762;SDS011;1389;51.490;7.338;2023-08-30T06:06:38;1024.90;;;402.70;;
2762;SDS011;1389;51.490;7.338;2023-08-30T06:09:10;907.40;;;329.23;;
2762;SDS011;1389;51.490;7.338;2023-08-30T06:11:40;916.15;;;329.85;;
2762;SDS011;1389;51.490;7.338;2023-08-30T06:14:07;904.22;;;328.50;;
2762;SDS011;1389;51.490;7.338;2023-08-30T06:16:33;902.92;;;328.50;;
2762;SDS011;1389;51.490;7.338;2023-08-30T06:18:59;893.15;;;325.88;;
2762;SDS011;1389;51.490;7.338;2023-08-30T06:21:25;906.45;;;325.73;;
2762;SDS011;1389;51.490;7.338;2023-08-30T06:23:52;894.05;;;325.77;;
2762;SDS011;1389;51.490;7.338;2023-08-30T06:26:18;899.72;;;327.98;;
2762;SDS011;1389;51.490;7.338;2023-08-30T06:28:44;898.17;;;334.15;;
2762;SDS011;1389;51.490;7.338;2023-08-30T06:31:10;898.38;;;328.30;;
2762;SDS011;1389;51.490;7.338;2023-08-30T06:33:37;891.30;;;332.83;;
2762;SDS011;1389;51.490;7.338;2023-08-30T06:36:04;911.85;;;336.70;;
2762;SDS011;1389;51.490;7.338;2023-08-30T06:38:30;892.47;;;330.15;;
2762;SDS011;1389;51.490;7.338;2023-08-30T06:40:57;877.25;;;329.00;;
2762;SDS011;1389;51.490;7.338;2023-08-30T06:43:26;873.88;;;327.73;;
2762;SDS011;1389;51.490;7.338;2023-08-30T06:45:52;875.90;;;328.90;;
2762;SDS011;1389;51.490;7.338;2023-08-30T06:48:18;883.67;;;330.38;;
2762;SDS011;1389;51.490;7.338;2023-08-30T06:50:44;879.22;;;329.83;;
2762;SDS011;1389;51.490;7.338;2023-08-30T06:53:11;877.63;;;332.75;;
2762;SDS011;1389;51.490;7.338;2023-08-30T06:55:37;876.30;;;330.00;;
2762;SDS011;1389;51.490;7.338;2023-08-30T06:58:04;876.88;;;329.25;;
2762;SDS011;1389;51.490;7.338;2023-08-30T07:00:30;877.42;;;329.05;;
2762;SDS011;1389;51.490;7.338;2023-08-30T07:02:56;1000.63;;;403.67;;
2762;SDS011;1389;51.490;7.338;2023-08-30T07:05:23;499.53;;;104.30;;
2762;SDS011;1389;51.490;7.338;2023-08-30T07:07:49;874.08;;;328.58;;
2762;SDS011;1389;51.490;7.338;2023-08-30T07:10:15;879.00;;;339.15;;
2762;SDS011;1389;51.490;7.338;2023-08-30T07:12:41;878.80;;;338.52;;
2762;SDS011;1389;51.490;7.338;2023-08-30T07:15:08;1002.87;;;412.97;;
2762;SDS011;1389;51.490;7.338;2023-08-30T07:17:34;875.50;;;334.95;;
2762;SDS011;1389;51.490;7.338;2023-08-30T07:20:01;876.90;;;334.85;;
2762;SDS011;1389;51.490;7.338;2023-08-30T07:22:28;875.63;;;329.25;;
2762;SDS011;1389;51.490;7.338;2023-08-30T07:24:55;874.38;;;327.63;;
2762;SDS011;1389;51.490;7.338;2023-08-30T07:27:21;873.33;;;327.38;;
2762;SDS011;1389;51.490;7.338;2023-08-30T07:29:47;871.45;;;327.70;;
2762;SDS011;1389;51.490;7.338;2023-08-30T07:32:13;998.40;;;404.83;;
2762;SDS011;1389;51.490;7.338;2023-08-30T07:34:39;869.50;;;325.48;;
2762;SDS011;1389;51.490;7.338;2023-08-30T07:37:05;870.25;;;326.77;;
2762;SDS011;1389;51.490;7.338;2023-08-30T07:39:45;869.92;;;325.75;;
2762;SDS011;1389;51.490;7.338;2023-08-30T07:42:12;867.13;;;323.98;;
2762;SDS011;1389;51.490;7.338;2023-08-30T07:44:39;868.28;;;324.30;;
2762;SDS011;1389;51.490;7.338;2023-08-30T07:47:05;865.90;;;323.85;;
2762;SDS011;1389;51.490;7.338;2023-08-30T07:49:31;865.45;;;324.02;;
2762;SDS011;1389;51.490;7.338;2023-08-30T07:51:57;864.85;;;323.58;;
2762;SDS011;1389;51.490;7.338;2023-08-30T07:54:23;863.63;;;322.17;;
2762;SDS011;1389;51.490;7.338;2023-08-30T07:56:49;863.88;;;323.15;;
2762;SDS011;1389;51.490;7.338;2023-08-30T07:59:15;989.60;;;397.77;;
2762;SDS011;1389;51.490;7.338;2023-08-30T08:01:41;861.50;;;321.00;;
2762;SDS011;1389;51.490;7.338;2023-08-30T08:04:07;986.97;;;395.83;;
2762;SDS011;1389;51.490;7.338;2023-08-30T08:06:33;858.25;;;318.98;;
2762;SDS011;1389;51.490;7.338;2023-08-30T08:09:00;856.25;;;317.48;;
2762;SDS011;1389;51.490;7.338;2023-08-30T08:11:26;848.58;;;309.13;;
2762;SDS011;1389;51.490;7.338;2023-08-30T08:13:52;847.30;;;308.48;;
2762;SDS011;1389;51.490;7.338;2023-08-30T08:16:19;845.42;;;307.55;;
2762;SDS011;1389;51.490;7.338;2023-08-30T08:18:45;844.60;;;306.95;;
2762;SDS011;1389;51.490;7.338;2023-08-30T08:21:12;843.70;;;306.38;;
2762;SDS011;1389;51.490;7.338;2023-08-30T08:23:38;970.57;;;382.17;;
2762;SDS011;1389;51.490;7.338;2023-08-30T08:26:04;839.80;;;303.83;;
2762;SDS011;1389;51.490;7.338;2023-08-30T08:28:30;837.65;;;302.40;;
2762;SDS011;1389;51.490;7.338;2023-08-30T08:30:56;835.88;;;301.25;;
2762;SDS011;1389;51.490;7.338;2023-08-30T08:33:22;830.63;;;297.10;;
2762;SDS011;1389;51.490;7.338;2023-08-30T08:35:49;826.05;;;293.92;;
2762;SDS011;1389;51.490;7.338;2023-08-30T08:38:15;823.47;;;292.95;;
2762;SDS011;1389;51.490;7.338;2023-08-30T08:40:42;951.27;;;370.27;;
2762;SDS011;1389;51.490;7.338;2023-08-30T08:43:11;816.40;;;290.33;;
2762;SDS011;1389;51.490;7.338;2023-08-30T08:45:37;814.00;;;289.42;;
2762;SDS011;1389;51.490;7.338;2023-08-30T08:48:04;810.03;;;288.13;;
2762;SDS011;1389;51.490;7.338;2023-08-30T08:50:31;806.30;;;287.02;;
2762;SDS011;1389;51.490;7.338;2023-08-30T08:52:59;806.72;;;286.95;;
2762;SDS011;1389;51.490;7.338;2023-08-30T08:55:26;802.17;;;285.45;;
2762;SDS011;1389;51.490;7.338;2023-08-30T08:57:55;928.67;;;361.77;;
2762;SDS011;1389;51.490;7.338;2023-08-30T09:00:25;793.08;;;281.70;;
2762;SDS011;1389;51.490;7.338;2023-08-30T09:02:52;788.10;;;280.42;;
2762;SDS011;1389;51.490;7.338;2023-08-30T09:05:19;782.70;;;279.23;;
2762;SDS011;1389;51.490;7.338;2023-08-30T09:07:46;774.63;;;277.95;;
2762;SDS011;1389;51.490;7.338;2023-08-30T09:10:12;767.78;;;277.05;;
2762;SDS011;1389;51.490;7.338;2023-08-30T09:12:38;344.80;;;35.00;;
2762;SDS011;1389;51.490;7.338;2023-08-30T09:15:04;751.60;;;275.55;;
2762;SDS011;1389;51.490;7.338;2023-08-30T09:17:35;744.85;;;275.17;;
2762;SDS011;1389;51.490;7.338;2023-08-30T09:20:08;740.15;;;275.02;;
2762;SDS011;1389;51.490;7.338;2023-08-30T09:22:39;736.25;;;274.05;;
2762;SDS011;1389;51.490;7.338;2023-08-30T09:25:07;735.75;;;274.73;;
2762;SDS011;1389;51.490;7.338;2023-08-30T09:27:38;873.57;;;355.23;;
2762;SDS011;1389;51.490;7.338;2023-08-30T09:30:25;730.53;;;273.88;;
2762;SDS011;1389;51.490;7.338;2023-08-30T09:32:52;730.30;;;272.92;;
2762;SDS011;1389;51.490;7.338;2023-08-30T09:35:18;731.70;;;273.98;;
2762;SDS011;1389;51.490;7.338;2023-08-30T09:37:45;731.33;;;274.20;;
2762;SDS011;1389;51.490;7.338;2023-08-30T09:40:11;723.75;;;272.02;;
2762;SDS011;1389;51.490;7.338;2023-08-30T09:42:41;723.28;;;272.10;;
2762;SDS011;1389;51.490;7.338;2023-08-30T09:45:17;720.65;;;273.05;;
2762;SDS011;1389;51.490;7.338;2023-08-30T09:47:49;717.92;;;272.85;;
2762;SDS011;1389;51.490;7.338;2023-08-30T09:50:20;721.15;;;274.13;;
2762;SDS011;1389;51.490;7.338;2023-08-30T09:52:47;861.73;;;353.23;;
2762;SDS011;1389;51.490;7.338;2023-08-30T09:55:16;721.05;;;273.98;;
2762;SDS011;1389;51.490;7.338;2023-08-30T09:57:44;715.88;;;271.83;;
2762;SDS011;1389;51.490;7.338;2023-08-30T10:00:11;716.53;;;271.77;;
2762;SDS011;1389;51.490;7.338;2023-08-30T10:02:39;399.15;;;124.18;;
2762;SDS011;1389;51.490;7.338;2023-08-30T10:05:12;1999.90;;;999.90;;
2762;SDS011;1389;51.490;7.338;2023-08-30T10:07:38;1999.90;;;999.90;;
2762;SDS011;1389;51.490;7.338;2023-08-30T10:10:05;1999.90;;;999.90;;
2762;SDS011;1389;51.490;7.338;2023-08-30T10:12:31;1999.90;;;999.90;;
2762;SDS011;1389;51.490;7.338;2023-08-30T10:14:58;1999.90;;;999.90;;
2762;SDS011;1389;51.490;7.338;2023-08-30T10:17:28;1999.90;;;999.90;;
2762;SDS011;1389;51.490;7.338;2023-08-30T10:19:58;1999.90;;;999.90;;
2762;SDS011;1389;51.490;7.338;2023-08-30T10:22:27;1999.90;;;999.90;;
2762;SDS011;1389;51.490;7.338;2023-08-30T10:27:33;1999.90;;;999.90;;
2762;SDS011;1389;51.490;7.338;2023-08-30T10:30:01;1999.90;;;999.90;;
2762;SDS011;1389;51.490;7.338;2023-08-30T10:32:29;1999.90;;;999.90;;
2762;SDS011;1389;51.490;7.338;2023-08-30T10:35:00;1999.90;;;999.90;;
2762;SDS011;1389;51.490;7.338;2023-08-30T10:37:29;1999.90;;;999.90;;
2762;SDS011;1389;51.490;7.338;2023-08-30T10:39:59;1999.90;;;999.90;;
2762;SDS011;1389;51.490;7.338;2023-08-30T10:42:29;1999.90;;;999.90;;
2762;SDS011;1389;51.490;7.338;2023-08-30T10:44:59;1999.90;;;999.90;;
2762;SDS011;1389;51.490;7.338;2023-08-30T10:47:35;1999.90;;;999.90;;
2762;SDS011;1389;51.490;7.338;2023-08-30T10:50:06;1999.90;;;999.90;;
2762;SDS011;1389;51.490;7.338;2023-08-30T10:52:34;1999.90;;;999.90;;
2762;SDS011;1389;51.490;7.338;2023-08-30T10:55:04;1999.90;;;999.90;;
2762;SDS011;1389;51.490;7.338;2023-08-30T10:57:32;1999.90;;;999.90;;
2762;SDS011;1389;51.490;7.338;2023-08-30T11:00:08;1999.90;;;999.90;;
2762;SDS011;1389;51.490;7.338;2023-08-30T11:02:43;1999.90;;;999.90;;
2762;SDS011;1389;51.490;7.338;2023-08-30T11:05:16;1999.90;;;999.90;;
2762;SDS011;1389;51.490;7.338;2023-08-30T11:07:48;1999.90;;;999.90;;
2762;SDS011;1389;51.490;7.338;2023-08-30T11:10:15;1999.90;;;999.90;;
2762;SDS011;1389;51.490;7.338;2023-08-30T11:12:42;1999.90;;;999.90;;
2762;SDS011;1389;51.490;7.338;2023-08-30T11:15:10;1999.90;;;999.90;;
2762;SDS011;1389;51.490;7.338;2023-08-30T11:17:37;1999.90;;;999.90;;
2762;SDS011;1389;51.490;7.338;2023-08-30T11:20:06;1999.90;;;999.90;;
2762;SDS011;1389;51.490;7.338;2023-08-30T11:22:37;1999.90;;;999.90;;
2762;SDS011;1389;51.490;7.338;2023-08-30T11:25:08;1999.90;;;999.90;;
2762;SDS011;1389;51.490;7.338;2023-08-30T11:27:36;1999.90;;;999.90;;
2762;SDS011;1389;51.490;7.338;2023-08-30T11:30:02;1999.90;;;999.90;;
2762;SDS011;1389;51.490;7.338;2023-08-30T11:32:34;1999.90;;;999.90;;
2762;SDS011;1389;51.490;7.338;2023-08-30T11:35:10;1999.90;;;999.90;;
2762;SDS011;1389;51.490;7.338;2023-08-30T11:37:36;1999.90;;;999.90;;
2762;SDS011;1389;51.490;7.338;2023-08-30T11:40:03;1999.90;;;999.90;;
2762;SDS011;1389;51.490;7.338;2023-08-30T11:42:31;1999.90;;;999.90;;
2762;SDS011;1389;51.490;7.338;2023-08-30T11:44:58;1389.97;;;871.38;;
2762;SDS011;1389;51.490;7.338;2023-08-30T11:47:25;1999.90;;;999.90;;
2762;SDS011;1389;51.490;7.338;2023-08-30T11:49:52;1045.97;;;769.92;;
2762;SDS011;1389;51.490;7.338;2023-08-30T11:52:20;1999.90;;;999.90;;
2762;SDS011;1389;51.490;7.338;2023-08-30T11:54:48;1173.43;;;891.33;;
2762;SDS011;1389;51.490;7.338;2023-08-30T11:57:15;1999.90;;;999.90;;
2762;SDS011;1389;51.490;7.338;2023-08-30T11:59:42;1999.90;;;999.90;;
2762;SDS011;1389;51.490;7.338;2023-08-30T12:02:11;1999.90;;;999.90;;
2762;SDS011;1389;51.490;7.338;2023-08-30T12:04:40;1999.90;;;999.90;;
2762;SDS011;1389;51.490;7.338;2023-08-30T12:07:07;1999.90;;;999.90;;
2762;SDS011;1389;51.490;7.338;2023-08-30T12:09:35;1999.90;;;999.90;;
2762;SDS011;1389;51.490;7.338;2023-08-30T12:12:05;1999.90;;;999.90;;
2762;SDS011;1389;51.490;7.338;2023-08-30T12:14:34;1707.85;;;999.90;;
2762;SDS011;1389;51.490;7.338;2023-08-30T12:17:01;1999.90;;;999.90;;
2762;SDS011;1389;51.490;7.338;2023-08-30T12:19:29;1999.90;;;999.90;;
2762;SDS011;1389;51.490;7.338;2023-08-30T12:22:06;1999.90;;;999.90;;
2762;SDS011;1389;51.490;7.338;2023-08-30T12:24:52;1999.90;;;999.90;;
2762;SDS011;1389;51.490;7.338;2023-08-30T12:27:38;1999.90;;;999.90;;
2762;SDS011;1389;51.490;7.338;2023-08-30T12:30:05;1999.90;;;999.90;;
2762;SDS011;1389;51.490;7.338;2023-08-30T12:32:32;1999.90;;;999.90;;
2762;SDS011;1389;51.490;7.338;2023-08-30T12:34:58;1999.90;;;999.90;;
2762;SDS011;1389;51.490;7.338;2023-08-30T12:37:24;1999.90;;;999.90;;
2762;SDS011;1389;51.490;7.338;2023-08-30T12:39:50;1999.90;;;999.90;;
2762;SDS011;1389;51.490;7.338;2023-08-30T12:42:16;1999.90;;;999.90;;
2762;SDS011;1389;51.490;7.338;2023-08-30T12:44:42;1999.90;;;999.90;;
2762;SDS011;1389;51.490;7.338;2023-08-30T12:47:08;1999.90;;;999.90;;
2762;SDS011;1389;51.490;7.338;2023-08-30T12:49:34;1999.90;;;999.90;;
2762;SDS011;1389;51.490;7.338;2023-08-30T12:52:00;1999.90;;;999.90;;
2762;SDS011;1389;51.490;7.338;2023-08-30T12:54:27;1999.90;;;999.90;;
2762;SDS011;1389;51.490;7.338;2023-08-30T12:56:53;1999.90;;;999.90;;
2762;SDS011;1389;51.490;7.338;2023-08-30T12:59:19;1999.90;;;999.90;;
2762;SDS011;1389;51.490;7.338;2023-08-30T13:01:45;1999.90;;;999.90;;
2762;SDS011;1389;51.490;7.338;2023-08-30T13:04:11;1999.90;;;999.90;;
2762;SDS011;1389;51.490;7.338;2023-08-30T13:06:37;1999.90;;;999.90;;
2762;SDS011;1389;51.490;7.338;2023-08-30T13:09:03;1999.90;;;999.90;;
2762;SDS011;1389;51.490;7.338;2023-08-30T13:11:29;1999.90;;;999.90;;
2762;SDS011;1389;51.490;7.338;2023-08-30T13:13:58;1999.90;;;999.90;;
2762;SDS011;1389;51.490;7.338;2023-08-30T13:16:24;1999.90;;;999.90;;
2762;SDS011;1389;51.490;7.338;2023-08-30T13:18:50;1999.90;;;999.90;;
2762;SDS011;1389;51.490;7.338;2023-08-30T13:21:16;1999.90;;;999.90;;
2762;SDS011;1389;51.490;7.338;2023-08-30T13:23:42;1999.90;;;999.90;;
2762;SDS011;1389;51.490;7.338;2023-08-30T13:26:08;1999.90;;;999.90;;
2762;SDS011;1389;51.490;7.338;2023-08-30T13:28:35;1999.90;;;999.90;;
2762;SDS011;1389;51.490;7.338;2023-08-30T13:31:01;1999.90;;;999.90;;
2762;SDS011;1389;51.490;7.338;2023-08-30T13:33:27;1999.90;;;999.90;;
2762;SDS011;1389;51.490;7.338;2023-08-30T13:35:53;1999.90;;;999.90;;
2762;SDS011;1389;51.490;7.338;2023-08-30T13:38:19;1999.90;;;999.90;;
2762;SDS011;1389;51.490;7.338;2023-08-30T13:40:45;1999.90;;;999.90;;
2762;SDS011;1389;51.490;7.338;2023-08-30T13:43:11;1999.90;;;999.90;;
2762;SDS011;1389;51.490;7.338;2023-08-30T13:45:37;1999.90;;;999.90;;
2762;SDS011;1389;51.490;7.338;2023-08-30T13:48:04;1999.90;;;999.90;;
2762;SDS011;1389;51.490;7.338;2023-08-30T13:50:30;1999.90;;;999.90;;
2762;SDS011;1389;51.490;7.338;2023-08-30T13:52:57;1999.90;;;999.90;;
2762;SDS011;1389;51.490;7.338;2023-08-30T13:55:24;1999.90;;;999.90;;
2762;SDS011;1389;51.490;7.338;2023-08-30T13:57:50;1999.90;;;999.90;;
2762;SDS011;1389;51.490;7.338;2023-08-30T14:00:16;1999.90;;;999.90;;
2762;SDS011;1389;51.490;7.338;2023-08-30T14:02:43;1999.90;;;999.90;;
2762;SDS011;1389;51.490;7.338;2023-08-30T14:05:09;1999.90;;;999.90;;
2762;SDS011;1389;51.490;7.338;2023-08-30T14:07:35;1999.90;;;999.90;;
2762;SDS011;1389;51.490;7.338;2023-08-30T14:10:01;1999.90;;;999.90;;
2762;SDS011;1389;51.490;7.338;2023-08-30T14:12:27;1999.90;;;999.90;;
2762;SDS011;1389;51.490;7.338;2023-08-30T14:14:53;1999.90;;;999.90;;
2762;SDS011;1389;51.490;7.338;2023-08-30T14:17:19;1999.90;;;999.90;;
2762;SDS011;1389;51.490;7.338;2023-08-30T14:19:45;1999.90;;;999.90;;
2762;SDS011;1389;51.490;7.338;2023-08-30T14:22:11;1999.90;;;999.90;;
2762;SDS011;1389;51.490;7.338;2023-08-30T14:24:37;1999.90;;;999.90;;
2762;SDS011;1389;51.490;7.338;2023-08-30T14:27:03;1999.90;;;999.90;;
2762;SDS011;1389;51.490;7.338;2023-08-30T14:29:29;1999.90;;;999.90;;
2762;SDS011;1389;51.490;7.338;2023-08-30T14:31:56;1999.90;;;999.90;;
2762;SDS011;1389;51.490;7.338;2023-08-30T14:34:22;1999.90;;;999.90;;
2762;SDS011;1389;51.490;7.338;2023-08-30T14:36:49;1999.90;;;999.90;;
2762;SDS011;1389;51.490;7.338;2023-08-30T14:39:15;1999.90;;;999.90;;
2762;SDS011;1389;51.490;7.338;2023-08-30T14:41:41;1999.90;;;999.90;;